Time;durP1;ratioP1;P1;durP2;ratioP2;P2;SDS_P1;SDS_P2;PMS_P1;PMS_P2;Temp;Humidity;BMP_temperature;BMP_pressure;BME280_temperature;BME280_humidity;BME280_pressure;Samples;Min_cycle;Max_cycle;Signal;HPM_P1;HPM_P2
2023/09/05 00:01:52;;;;;;;1999.90;999.90;;;18.90;99.90;;;;;;5033395;28;20497;-71
2023/09/05 00:04:19;;;;;;;1999.90;999.90;;;19.00;99.90;;;;;;5032684;28;20426;-71
2023/09/05 00:06:47;;;;;;;1999.90;999.90;;;19.10;99.90;;;;;;5034464;28;20431;-71
2023/09/05 00:09:14;;;;;;;1999.90;999.90;;;19.70;99.90;;;;;;5029466;28;20910;-72
2023/09/05 00:11:41;;;;;;;1999.90;999.90;;;19.30;99.90;;;;;;5036046;28;20435;-72
2023/09/05 00:14:12;;;;;;;1999.90;999.90;;;19.30;99.90;;;;;;5030418;28;20439;-71
2023/09/05 00:16:38;;;;;;;1999.90;999.90;;;19.30;99.90;;;;;;5034843;28;20518;-71
2023/09/05 00:19:05;;;;;;;1999.90;999.90;;;19.20;99.90;;;;;;5034185;28;20437;-71
2023/09/05 00:21:32;;;;;;;1999.90;999.90;;;19.20;99.90;;;;;;5034210;28;20430;-70
2023/09/05 00:24:23;;;;;;;1999.90;999.90;;;19.10;99.90;;;;;;5035354;28;20430;-71
2023/09/05 00:26:50;;;;;;;1999.90;999.90;;;19.10;99.90;;;;;;5033466;28;20430;-72
2023/09/05 00:29:19;;;;;;;1999.90;999.90;;;18.90;99.90;;;;;;5036480;28;20462;-72
2023/09/05 00:31:46;;;;;;;1999.90;999.90;;;18.80;99.90;;;;;;5037945;28;20509;-72
2023/09/05 00:34:13;;;;;;;1999.90;999.90;;;18.90;99.90;;;;;;5038043;28;20435;-72
2023/09/05 00:36:40;;;;;;;1999.90;999.90;;;19.10;99.90;;;;;;5037426;28;20441;-71
2023/09/05 00:39:07;;;;;;;1999.90;999.90;;;19.30;99.90;;;;;;5037751;28;20938;-73
2023/09/05 00:41:34;;;;;;;1999.90;999.90;;;19.50;99.90;;;;;;5036496;28;20439;-70
2023/09/05 00:44:01;;;;;;;1999.90;999.90;;;19.70;99.90;;;;;;5035137;28;20438;-69
2023/09/05 00:46:29;;;;;;;1999.90;999.90;;;19.80;99.90;;;;;;5036269;28;20434;-71
2023/09/05 00:48:57;;;;;;;1999.90;999.90;;;19.90;99.90;;;;;;5034487;28;20442;-72
2023/09/05 00:51:25;;;;;;;1999.90;999.90;;;20.10;99.90;;;;;;5036189;28;20439;-71
2023/09/05 00:53:51;;;;;;;1999.90;999.90;;;20.10;99.90;;;;;;5035314;28;20521;-71
2023/09/05 00:56:18;;;;;;;1999.90;999.90;;;20.10;99.90;;;;;;5034901;28;20453;-72
2023/09/05 00:58:45;;;;;;;1999.90;999.90;;;20.20;99.90;;;;;;5035315;28;20445;-71
2023/09/05 01:01:12;;;;;;;1999.90;999.90;;;20.30;99.90;;;;;;5036152;28;20431;-71
2023/09/05 01:03:40;;;;;;;1999.90;999.90;;;20.50;99.90;;;;;;5030818;28;20435;-71
2023/09/05 01:06:12;;;;;;;1999.90;999.90;;;20.50;99.90;;;;;;5037042;28;20430;-71
2023/09/05 01:08:44;;;;;;;1999.90;999.90;;;20.50;99.90;;;;;;5037189;28;20439;-70
2023/09/05 01:11:14;;;;;;;1999.90;999.90;;;20.60;99.90;;;;;;5037403;28;20438;-71
2023/09/05 01:13:41;;;;;;;1999.90;999.90;;;20.60;99.90;;;;;;5038582;28;20438;-72
2023/09/05 01:16:08;;;;;;;1999.90;999.90;;;20.70;99.90;;;;;;5037373;28;20435;-72
2023/09/05 01:18:39;;;;;;;1999.90;999.90;;;20.70;99.90;;;;;;5037568;28;20431;-71
2023/09/05 01:21:17;;;;;;;1999.90;999.90;;;20.20;99.90;;;;;;5037964;28;20434;-71
2023/09/05 01:23:46;;;;;;;1999.90;999.90;;;20.70;99.90;;;;;;5035589;28;20434;-72
2023/09/05 01:26:14;;;;;;;1999.90;999.90;;;20.70;99.90;;;;;;5036163;28;20469;-71
2023/09/05 01:28:44;;;;;;;1999.90;999.90;;;20.70;99.90;;;;;;5035053;28;20435;-71
2023/09/05 01:31:11;;;;;;;1999.90;999.90;;;20.70;99.90;;;;;;5034676;28;20557;-72
2023/09/05 01:33:39;;;;;;;1999.90;999.90;;;20.70;99.90;;;;;;5033331;28;20443;-72
2023/09/05 01:36:06;;;;;;;1999.90;999.90;;;20.60;99.90;;;;;;5034164;28;21052;-71
2023/09/05 01:38:34;;;;;;;1999.90;999.90;;;20.50;99.90;;;;;;5035428;28;20431;-71
2023/09/05 01:41:00;;;;;;;1999.90;999.90;;;20.40;99.90;;;;;;5035185;28;20438;-71
2023/09/05 01:43:28;;;;;;;1999.90;999.90;;;20.30;99.90;;;;;;5033102;28;20434;-72
2023/09/05 01:45:55;;;;;;;1999.90;999.90;;;20.50;99.90;;;;;;5035103;28;20830;-72
2023/09/05 01:48:22;;;;;;;1999.90;999.90;;;20.20;99.90;;;;;;5036138;28;20798;-71
2023/09/05 01:50:49;;;;;;;1999.90;999.90;;;20.20;99.90;;;;;;5035194;28;20456;-71
2023/09/05 01:53:15;;;;;;;1999.90;999.90;;;20.20;99.90;;;;;;5034365;28;20443;-71
2023/09/05 01:55:42;;;;;;;1999.90;999.90;;;20.30;99.90;;;;;;5028249;28;20789;-72
2023/09/05 01:58:09;;;;;;;1999.90;999.90;;;20.30;99.90;;;;;;5035010;28;20435;-70
2023/09/05 02:00:37;;;;;;;1999.90;999.90;;;20.30;99.90;;;;;;5035329;28;20438;-70
2023/09/05 02:03:04;;;;;;;1999.90;999.90;;;20.40;99.90;;;;;;5034119;28;20470;-71
2023/09/05 02:05:31;;;;;;;1999.90;999.90;;;20.50;99.90;;;;;;5035025;28;20435;-71
2023/09/05 02:07:58;;;;;;;1999.90;999.90;;;20.60;99.90;;;;;;5035965;28;20431;-71
2023/09/05 02:10:25;;;;;;;1999.90;999.90;;;20.70;99.90;;;;;;5036464;28;20430;-71
2023/09/05 02:12:51;;;;;;;1999.90;999.90;;;20.70;99.90;;;;;;5036241;28;20438;-72
2023/09/05 02:15:18;;;;;;;1999.90;999.90;;;20.80;99.90;;;;;;5038098;28;20441;-71
2023/09/05 02:17:46;;;;;;;1999.90;999.90;;;20.70;99.90;;;;;;5037280;28;20431;-72
2023/09/05 02:20:13;;;;;;;1999.90;999.90;;;20.70;99.90;;;;;;5038631;28;20442;-71
2023/09/05 02:22:41;;;;;;;1999.90;999.90;;;20.10;99.90;;;;;;5034556;28;20442;-73
2023/09/05 02:25:09;;;;;;;1999.90;999.90;;;19.20;99.90;;;;;;5041575;28;20442;-72
2023/09/05 02:27:35;;;;;;;1999.90;999.90;;;18.90;99.90;;;;;;5041362;28;20434;-72
2023/09/05 02:30:04;;;;;;;1999.90;999.90;;;18.70;99.90;;;;;;5041973;28;20444;-71
2023/09/05 02:32:31;;;;;;;1999.90;999.90;;;18.50;99.90;;;;;;5040741;28;20445;-71
2023/09/05 02:34:59;;;;;;;1999.90;999.90;;;18.30;99.90;;;;;;5038136;28;20435;-73
2023/09/05 02:37:26;;;;;;;1999.90;999.90;;;18.10;99.90;;;;;;5040314;28;20446;-71
2023/09/05 02:39:53;;;;;;;1999.90;999.90;;;17.90;99.90;;;;;;5041560;28;20439;-72
2023/09/05 02:42:19;;;;;;;1999.90;999.90;;;17.70;99.90;;;;;;5039380;28;20435;-74
2023/09/05 02:44:50;;;;;;;1999.90;999.90;;;18.20;99.90;;;;;;5036290;28;20921;-72
2023/09/05 02:47:16;;;;;;;1999.90;999.90;;;17.60;99.90;;;;;;5038190;28;20434;-72
2023/09/05 02:49:43;;;;;;;1999.90;999.90;;;17.50;99.90;;;;;;5039909;28;20529;-72
2023/09/05 02:52:12;;;;;;;1999.90;999.90;;;17.50;99.90;;;;;;5037863;28;20438;-71
2023/09/05 02:54:38;;;;;;;1999.90;999.90;;;17.60;99.90;;;;;;5035634;28;20445;-72
2023/09/05 02:57:05;;;;;;;1999.90;999.90;;;17.80;99.90;;;;;;5034678;28;20937;-72
2023/09/05 02:59:32;;;;;;;1999.90;999.90;;;17.60;99.90;;;;;;5037037;28;20439;-71
2023/09/05 03:01:58;;;;;;;1999.90;999.90;;;17.80;99.90;;;;;;5036460;28;20493;-72
2023/09/05 03:04:26;;;;;;;1999.90;999.90;;;17.60;99.90;;;;;;5034437;28;20435;-71
2023/09/05 03:06:53;;;;;;;1999.90;999.90;;;17.50;99.90;;;;;;5035773;28;20443;-72
2023/09/05 03:09:21;;;;;;;1999.90;999.90;;;17.70;99.90;;;;;;5035909;28;20434;-72
2023/09/05 03:14:28;;;;;;;1999.90;999.90;;;17.30;99.90;;;;;;5112856;27;20737;-72
2023/09/05 03:16:55;;;;;;;1999.90;999.90;;;17.40;99.90;;;;;;5108595;28;20434;-73
2023/09/05 03:19:22;;;;;;;1999.90;999.90;;;17.50;99.90;;;;;;5110321;28;20429;-72
2023/09/05 03:21:48;;;;;;;1999.90;999.90;;;17.30;99.90;;;;;;5105562;28;20428;-71
2023/09/05 03:24:17;;;;;;;1999.90;999.90;;;17.20;99.90;;;;;;5112326;28;20426;-72
2023/09/05 03:26:45;;;;;;;1999.90;999.90;;;17.40;99.90;;;;;;5105594;28;20498;-72
2023/09/05 03:29:13;;;;;;;1999.90;999.90;;;17.20;99.90;;;;;;5095929;28;20439;-72
2023/09/05 03:31:41;;;;;;;1999.90;999.90;;;17.30;99.90;;;;;;5104941;28;20466;-72
2023/09/05 03:34:07;;;;;;;1999.90;999.90;;;17.20;99.90;;;;;;5102200;28;20501;-72
2023/09/05 03:36:35;;;;;;;1999.90;999.90;;;17.40;99.90;;;;;;5108052;28;20425;-71
2023/09/05 03:39:02;;;;;;;1999.90;999.90;;;16.80;99.90;;;;;;5107846;28;20436;-71
2023/09/05 03:41:29;;;;;;;1999.90;999.90;;;16.70;99.90;;;;;;5103345;28;20434;-72
2023/09/05 03:43:55;;;;;;;1999.90;999.90;;;16.70;99.90;;;;;;5100389;28;20918;-72
2023/09/05 03:46:22;;;;;;;1999.90;999.90;;;16.70;99.90;;;;;;5113297;28;20432;-72
2023/09/05 03:48:52;;;;;;;1999.90;999.90;;;16.90;99.90;;;;;;5106213;28;20463;-72
2023/09/05 03:51:18;;;;;;;1999.90;999.90;;;16.60;99.90;;;;;;5104822;28;20425;-71
2023/09/05 03:53:45;;;;;;;1999.90;999.90;;;16.50;99.90;;;;;;5105194;28;20430;-72
2023/09/05 03:56:12;;;;;;;1999.90;999.90;;;16.50;99.90;;;;;;5097518;28;20928;-70
2023/09/05 03:58:39;;;;;;;1999.90;999.90;;;16.20;99.90;;;;;;5104440;28;21800;-73
2023/09/05 04:01:05;;;;;;;1999.90;999.90;;;16.20;99.90;;;;;;5103312;28;20466;-71
2023/09/05 04:03:33;;;;;;;1999.90;999.90;;;16.20;99.90;;;;;;5110879;28;20417;-72
2023/09/05 04:06:02;;;;;;;1999.90;999.90;;;16.30;99.90;;;;;;5109920;28;20424;-71
2023/09/05 04:08:29;;;;;;;1999.90;999.90;;;16.30;99.90;;;;;;5098335;28;20445;-72
2023/09/05 04:10:59;;;;;;;1999.90;999.90;;;16.20;99.90;;;;;;5104699;28;20429;-72
2023/09/05 04:13:26;;;;;;;1999.90;999.90;;;16.00;99.90;;;;;;5112743;27;20495;-71
2023/09/05 04:15:53;;;;;;;1999.90;999.90;;;15.90;99.90;;;;;;5125863;28;20454;-71
2023/09/05 04:18:19;;;;;;;1999.90;999.90;;;15.70;99.90;;;;;;5127233;28;20438;-71
2023/09/05 04:20:46;;;;;;;1999.90;999.90;;;15.70;99.90;;;;;;5115738;28;20421;-72
2023/09/05 04:23:14;;;;;;;1999.90;999.90;;;15.70;99.90;;;;;;5120939;28;20422;-72
2023/09/05 04:25:41;;;;;;;1999.90;999.90;;;15.90;99.90;;;;;;5105097;28;20915;-69
2023/09/05 04:28:08;;;;;;;1999.90;999.90;;;16.10;99.90;;;;;;5109562;28;20471;-72
2023/09/05 04:30:35;;;;;;;1999.90;999.90;;;15.90;99.90;;;;;;5116246;28;20412;-72
2023/09/05 04:33:03;;;;;;;1999.90;999.90;;;15.80;99.90;;;;;;5116025;28;20420;-72
2023/09/05 04:35:30;;;;;;;1999.90;999.90;;;15.80;99.90;;;;;;5100629;28;20426;-72
2023/09/05 04:37:57;;;;;;;1999.90;999.90;;;15.60;99.90;;;;;;5107984;28;20428;-73
2023/09/05 04:40:25;;;;;;;1999.90;999.90;;;15.40;99.90;;;;;;5106066;28;20435;-71
2023/09/05 04:42:51;;;;;;;1999.90;999.90;;;15.40;99.90;;;;;;5112067;28;20485;-73
2023/09/05 04:45:18;;;;;;;1999.90;999.90;;;15.40;99.90;;;;;;5118395;28;20428;-72
2023/09/05 04:47:45;;;;;;;1999.90;999.90;;;15.40;99.90;;;;;;5105030;28;20422;-72
2023/09/05 04:50:11;;;;;;;1999.90;999.90;;;15.90;99.90;;;;;;5108818;28;20422;-72
2023/09/05 04:52:38;;;;;;;1999.90;999.90;;;15.50;99.90;;;;;;5106554;28;20424;-73
2023/09/05 04:55:06;;;;;;;1999.90;999.90;;;15.50;99.90;;;;;;5111542;28;20440;-71
2023/09/05 04:57:34;;;;;;;1999.90;999.90;;;15.50;99.90;;;;;;5111295;27;20859;-72
2023/09/05 05:00:00;;;;;;;1999.90;999.90;;;15.50;99.90;;;;;;5102078;28;20433;-73
2023/09/05 05:02:28;;;;;;;1999.90;999.90;;;15.50;99.90;;;;;;5108077;28;20431;-72
2023/09/05 05:04:55;;;;;;;1999.90;999.90;;;15.60;99.90;;;;;;5108254;28;20430;-71
2023/09/05 05:07:22;;;;;;;1999.90;999.90;;;15.70;99.90;;;;;;5114905;28;20514;-73
2023/09/05 05:09:49;;;;;;;1999.90;999.90;;;15.80;99.90;;;;;;5113152;28;20420;-71
2023/09/05 05:12:16;;;;;;;1999.90;999.90;;;16.00;99.90;;;;;;5113314;28;20423;-71
2023/09/05 05:14:44;;;;;;;1999.90;999.90;;;16.40;99.90;;;;;;5105549;28;20426;-72
2023/09/05 05:17:12;;;;;;;1999.90;999.90;;;16.10;99.90;;;;;;5105237;28;20430;-73
2023/09/05 05:19:39;;;;;;;1999.90;999.90;;;16.30;99.90;;;;;;5106605;28;20432;-73
2023/09/05 05:22:06;;;;;;;1999.90;999.90;;;16.50;99.90;;;;;;5113083;28;20428;-72
2023/09/05 05:24:33;;;;;;;1999.90;999.90;;;16.60;99.90;;;;;;5112267;28;20422;-72
2023/09/05 05:27:00;;;;;;;1999.90;999.90;;;16.70;99.90;;;;;;5101411;28;20440;-73
2023/09/05 05:29:31;;;;;;;1999.90;999.90;;;16.80;99.90;;;;;;5101502;28;20432;-72
2023/09/05 05:32:00;;;;;;;1999.90;999.90;;;17.10;99.90;;;;;;5114596;28;20428;-72
2023/09/05 05:34:27;;;;;;;1999.90;999.90;;;17.20;99.90;;;;;;5116235;28;20573;-73
2023/09/05 05:36:53;;;;;;;1999.90;999.90;;;17.40;99.90;;;;;;5115001;28;20421;-73
2023/09/05 05:39:22;;;;;;;1999.90;999.90;;;17.50;99.90;;;;;;5115575;28;20900;-73
2023/09/05 05:41:49;;;;;;;1999.90;999.90;;;17.60;99.90;;;;;;5113494;28;20452;-73
2023/09/05 05:44:16;;;;;;;1999.90;999.90;;;17.60;99.90;;;;;;5116426;28;20905;-73
2023/09/05 05:46:43;;;;;;;1999.90;999.90;;;17.80;99.90;;;;;;5117595;28;20411;-73
2023/09/05 05:49:11;;;;;;;1999.90;999.90;;;17.90;99.90;;;;;;5108106;28;20531;-72
2023/09/05 05:51:40;;;;;;;1999.90;999.90;;;17.80;99.90;;;;;;5104740;28;20432;-72
2023/09/05 05:54:08;;;;;;;1999.90;999.90;;;17.90;99.90;;;;;;5098205;28;20493;-72
2023/09/05 05:56:35;;;;;;;1999.90;999.90;;;18.00;99.90;;;;;;5105387;28;20414;-71
2023/09/05 05:59:01;;;;;;;1999.90;999.90;;;18.50;99.90;;;;;;5098386;28;20455;-72
2023/09/05 06:01:28;;;;;;;1999.90;999.90;;;18.40;99.90;;;;;;5095858;28;20464;-72
2023/09/05 06:03:55;;;;;;;1999.90;999.90;;;18.80;99.90;;;;;;5106317;28;20428;-73
2023/09/05 06:06:23;;;;;;;1999.90;999.90;;;18.80;99.90;;;;;;5100854;28;20465;-73
2023/09/05 06:08:49;;;;;;;1999.90;999.90;;;18.40;99.90;;;;;;5102925;28;20425;-72
2023/09/05 06:11:16;;;;;;;1999.90;999.90;;;18.60;99.90;;;;;;5111957;28;20431;-73
2023/09/05 06:13:43;;;;;;;1999.90;999.90;;;18.70;99.90;;;;;;5113134;28;20428;-73
2023/09/05 06:16:09;;;;;;;1999.90;999.90;;;18.90;99.90;;;;;;5103873;28;20433;-73
2023/09/05 06:18:36;;;;;;;1999.90;999.90;;;19.10;99.90;;;;;;5100930;28;20427;-72
2023/09/05 06:21:03;;;;;;;1999.90;999.90;;;19.20;99.90;;;;;;5105816;28;20426;-72
2023/09/05 06:23:32;;;;;;;1999.90;999.90;;;19.40;99.90;;;;;;5106960;28;20428;-73
2023/09/05 06:25:59;;;;;;;1999.90;999.90;;;19.50;99.90;;;;;;5107175;28;20805;-71
2023/09/05 06:28:25;;;;;;;1999.90;999.90;;;19.70;99.90;;;;;;5108693;28;20429;-72
2023/09/05 06:30:56;;;;;;;1999.90;999.90;;;19.80;99.90;;;;;;5097863;28;20430;-73
2023/09/05 06:33:23;;;;;;;1999.90;999.90;;;19.80;99.90;;;;;;5112775;28;20916;-73
2023/09/05 06:35:50;;;;;;;1999.90;999.90;;;20.20;99.90;;;;;;5109445;28;20543;-72
2023/09/05 06:38:16;;;;;;;1999.90;999.90;;;20.00;99.90;;;;;;5111016;28;20443;-73
2023/09/05 06:40:44;;;;;;;1999.90;999.90;;;20.00;99.90;;;;;;5105601;28;20447;-73
2023/09/05 06:43:11;;;;;;;1999.90;999.90;;;20.30;99.90;;;;;;5109437;28;20432;-73
2023/09/05 06:45:37;;;;;;;1999.90;999.90;;;20.70;99.90;;;;;;5100174;28;20426;-73
2023/09/05 06:48:05;;;;;;;1999.90;999.90;;;20.90;99.90;;;;;;5108179;27;20420;-72
2023/09/05 06:50:31;;;;;;;1999.90;999.90;;;21.10;99.90;;;;;;5099458;28;20429;-72
2023/09/05 06:52:58;;;;;;;1999.90;999.90;;;21.20;99.90;;;;;;5094441;28;20434;-72
2023/09/05 06:55:26;;;;;;;1999.90;999.90;;;21.40;99.90;;;;;;5098334;28;20906;-73
2023/09/05 06:57:54;;;;;;;1999.90;999.90;;;21.50;99.90;;;;;;5100447;28;20835;-73
2023/09/05 07:00:22;;;;;;;1999.90;999.90;;;21.70;99.90;;;;;;5104515;28;20811;-72
2023/09/05 07:02:50;;;;;;;1999.90;999.90;;;22.00;99.90;;;;;;5113052;28;20432;-73
2023/09/05 07:05:17;;;;;;;1999.90;999.90;;;22.20;99.90;;;;;;5108574;28;20928;-70
2023/09/05 07:07:44;;;;;;;1999.90;999.90;;;22.40;99.90;;;;;;5115304;28;20459;-74
2023/09/05 07:10:11;;;;;;;1999.90;999.90;;;22.50;99.90;;;;;;5118363;28;20405;-73
2023/09/05 07:12:38;;;;;;;1999.90;999.90;;;22.60;99.90;;;;;;5114343;28;20420;-70
2023/09/05 07:15:07;;;;;;;1999.90;999.90;;;22.80;99.90;;;;;;5115608;28;20431;-74
2023/09/05 07:17:33;;;;;;;1999.90;999.90;;;22.90;99.90;;;;;;5109595;28;20411;-72
2023/09/05 07:20:00;;;;;;;1999.90;999.90;;;23.00;99.90;;;;;;5116898;28;20765;-71
2023/09/05 07:22:27;;;;;;;1999.90;999.90;;;23.20;99.90;;;;;;5117948;28;20823;-72
2023/09/05 07:24:54;;;;;;;1999.90;999.90;;;23.50;99.90;;;;;;5110525;28;20464;-73
2023/09/05 07:27:21;;;;;;;1999.90;999.90;;;23.70;99.90;;;;;;5120947;28;20901;-70
2023/09/05 07:29:48;;;;;;;1999.90;999.90;;;23.80;99.90;;;;;;5120103;28;20416;-73
2023/09/05 07:32:16;;;;;;;1999.90;999.90;;;23.90;99.90;;;;;;5117977;28;20515;-73
2023/09/05 07:34:43;;;;;;;1999.90;999.90;;;24.20;99.90;;;;;;5118172;28;20430;-71
2023/09/05 07:37:10;;;;;;;1999.90;999.90;;;24.40;99.90;;;;;;5118121;28;20432;-73
2023/09/05 07:39:36;;;;;;;1999.90;999.90;;;24.60;99.90;;;;;;5118041;28;20408;-72
2023/09/05 07:42:05;;;;;;;1999.90;999.90;;;24.90;99.90;;;;;;5118256;28;20411;-70
2023/09/05 07:44:31;;;;;;;1999.90;999.90;;;25.10;99.90;;;;;;5118316;28;20408;-71
2023/09/05 07:46:58;;;;;;;1999.90;999.90;;;25.50;99.90;;;;;;5117572;28;20420;-71
2023/09/05 07:49:27;;;;;;;1999.90;999.90;;;25.30;99.90;;;;;;5119714;28;20442;-71
2023/09/05 07:51:54;;;;;;;1999.90;999.90;;;25.60;99.90;;;;;;5121152;28;20481;-71
2023/09/05 07:54:25;;;;;;;1999.90;999.90;;;25.90;99.90;;;;;;5122390;28;20428;-71
2023/09/05 07:56:52;;;;;;;1999.90;999.90;;;26.00;99.90;;;;;;5124572;28;20480;-70
2023/09/05 07:59:19;;;;;;;1999.90;999.90;;;26.00;99.40;;;;;;5123046;28;20423;-71
2023/09/05 08:01:46;;;;;;;1999.90;999.90;;;26.00;99.40;;;;;;5103907;28;20429;-70
2023/09/05 08:04:12;;;;;;;1999.90;999.90;;;26.10;99.00;;;;;;5116258;28;20450;-69
2023/09/05 08:06:40;;;;;;;1999.90;999.90;;;25.90;99.40;;;;;;5116684;28;20442;-70
2023/09/05 08:09:07;;;;;;;1999.90;999.90;;;26.10;99.00;;;;;;5112558;28;20428;-71
2023/09/05 08:11:34;;;;;;;1999.90;999.90;;;25.90;99.80;;;;;;5104344;28;20418;-70
2023/09/05 08:14:00;;;;;;;1999.90;999.90;;;26.60;99.90;;;;;;5112773;27;20481;-70
2023/09/05 08:16:29;;;;;;;1999.90;999.90;;;26.40;98.50;;;;;;5110420;28;20425;-70
2023/09/05 08:18:56;;;;;;;1999.90;999.90;;;26.40;99.80;;;;;;5126149;28;20408;-71
2023/09/05 08:21:22;;;;;;;1999.90;999.90;;;26.60;98.70;;;;;;5122871;28;20411;-69
2023/09/05 08:23:51;;;;;;;1999.90;999.90;;;27.00;98.50;;;;;;5114979;27;20476;-70
2023/09/05 08:26:17;;;;;;;1999.90;999.90;;;27.00;98.00;;;;;;5112358;28;20410;-70
2023/09/05 08:28:45;;;;;;;1999.90;999.90;;;27.00;98.20;;;;;;5102512;28;20812;-72
2023/09/05 08:31:13;;;;;;;1999.90;999.90;;;27.00;98.50;;;;;;5099583;28;20508;-72
2023/09/05 08:33:39;;;;;;;1999.90;999.90;;;26.70;99.60;;;;;;5105416;28;20425;-72
2023/09/05 08:36:09;;;;;;;1999.90;999.90;;;27.00;99.60;;;;;;5100908;28;20440;-72
2023/09/05 08:38:37;;;;;;;1999.90;999.90;;;26.90;99.90;;;;;;5118399;28;20416;-69
2023/09/05 08:41:06;;;;;;;1999.90;999.90;;;26.70;99.30;;;;;;5115146;28;20413;-70
2023/09/05 08:43:33;;;;;;;1999.90;999.90;;;26.80;99.90;;;;;;5116396;28;20503;-71
2023/09/05 08:46:02;;;;;;;1999.90;999.90;;;26.80;99.90;;;;;;5101229;28;20409;-71
2023/09/05 08:48:29;;;;;;;1999.90;999.90;;;27.20;99.70;;;;;;5105747;28;20426;-69
2023/09/05 08:50:57;;;;;;;1999.90;999.90;;;27.50;99.30;;;;;;5104378;28;20430;-70
2023/09/05 08:53:31;;;;;;;1999.90;999.90;;;27.80;98.80;;;;;;5113007;28;20424;-70
2023/09/05 08:55:58;;;;;;;1999.90;999.90;;;28.00;98.80;;;;;;5109665;28;20501;-70
2023/09/05 08:58:28;;;;;;;1999.90;999.90;;;28.00;97.70;;;;;;5109871;28;20425;-70
2023/09/05 09:00:55;;;;;;;1999.90;999.90;;;28.10;98.20;;;;;;5099882;28;20492;-70
2023/09/05 09:03:22;;;;;;;1999.90;999.90;;;28.30;97.70;;;;;;5104185;28;20925;-72
2023/09/05 09:05:49;;;;;;;1999.90;999.90;;;28.30;98.40;;;;;;5103832;28;20895;-72
2023/09/05 09:08:19;;;;;;;1999.90;999.90;;;28.30;97.70;;;;;;5101521;28;20651;-73
2023/09/05 09:11:05;;;;;;;1999.90;999.90;;;28.00;98.00;;;;;;5107654;28;20439;-73
2023/09/05 09:13:34;;;;;;;1999.90;999.90;;;28.20;97.70;;;;;;5104784;28;20437;-70
2023/09/05 09:16:02;;;;;;;1999.90;999.90;;;28.20;97.70;;;;;;5112410;28;20417;-71
2023/09/05 09:18:31;;;;;;;1999.90;999.90;;;28.20;97.20;;;;;;5111541;28;20426;-71
2023/09/05 09:21:02;;;;;;;1999.90;999.90;;;28.30;97.10;;;;;;5114867;28;20424;-72
2023/09/05 09:23:33;;;;;;;1999.90;999.90;;;28.20;98.00;;;;;;5104851;28;20448;-71
2023/09/05 09:26:00;;;;;;;1999.90;999.90;;;28.20;98.20;;;;;;5111799;28;20433;-69
2023/09/05 09:28:28;;;;;;;1999.90;999.90;;;28.40;96.80;;;;;;5109847;28;20428;-71
2023/09/05 09:30:58;;;;;;;1999.90;999.90;;;28.50;97.90;;;;;;5113564;28;20430;-71
2023/09/05 09:33:25;;;;;;;1999.90;999.90;;;28.40;97.30;;;;;;5104319;28;20440;-72
2023/09/05 09:36:06;;;;;;;1999.90;999.90;;;28.40;96.80;;;;;;5113230;28;20424;-73
2023/09/05 09:38:34;;;;;;;1999.90;999.90;;;28.60;97.70;;;;;;5113338;28;20436;-70
2023/09/05 09:41:02;;;;;;;1999.90;999.90;;;28.70;97.10;;;;;;5124920;28;20415;-71
2023/09/05 09:43:30;;;;;;;1999.90;999.90;;;28.80;96.50;;;;;;5121810;28;20470;-72
2023/09/05 09:46:00;;;;;;;1999.90;999.90;;;28.90;96.90;;;;;;5111523;28;20452;-72
2023/09/05 09:48:28;;;;;;;1999.90;999.90;;;29.00;96.70;;;;;;5114231;28;20408;-71
2023/09/05 09:50:56;;;;;;;1999.90;999.90;;;29.20;97.40;;;;;;5122877;28;20408;-71
2023/09/05 09:53:34;;;;;;;1999.90;999.90;;;29.10;97.70;;;;;;5122115;28;20416;-72
2023/09/05 09:56:04;;;;;;;1999.90;999.90;;;29.20;97.80;;;;;;5126003;28;20424;-72
2023/09/05 09:58:32;;;;;;;1999.90;999.90;;;29.40;97.30;;;;;;5104071;28;20448;-71
2023/09/05 10:01:02;;;;;;;1999.90;999.90;;;29.50;96.90;;;;;;5122562;28;20475;-71
2023/09/05 10:03:29;;;;;;;1999.90;999.90;;;29.40;96.90;;;;;;5123856;28;20408;-71
2023/09/05 10:05:57;;;;;;;1999.90;999.90;;;29.30;97.60;;;;;;5124813;28;20431;-72
2023/09/05 10:08:25;;;;;;;1999.90;999.90;;;29.40;96.10;;;;;;5120368;28;20938;-72
2023/09/05 10:10:54;;;;;;;1999.90;999.90;;;29.60;96.80;;;;;;5109559;28;20416;-72
2023/09/05 10:13:26;;;;;;;1999.90;999.90;;;29.70;96.80;;;;;;5124896;28;20412;-71
2023/09/05 10:15:54;;;;;;;1999.90;999.90;;;29.80;96.30;;;;;;5119043;28;20424;-71
2023/09/05 10:18:24;;;;;;;1999.90;999.90;;;29.70;96.30;;;;;;5102033;28;20440;-71
2023/09/05 10:20:52;;;;;;;1999.90;999.90;;;29.80;96.40;;;;;;5106787;28;20425;-72
2023/09/05 10:23:19;;;;;;;1999.90;999.90;;;29.70;94.70;;;;;;5103183;28;20429;-71
2023/09/05 10:25:48;;;;;;;1999.90;999.90;;;29.70;95.00;;;;;;5106708;28;20406;-71
2023/09/05 10:28:15;;;;;;;1999.90;999.90;;;29.90;95.10;;;;;;5112052;28;20408;-72
2023/09/05 10:30:43;;;;;;;1999.90;999.90;;;30.10;93.80;;;;;;5119854;27;20420;-70
2023/09/05 10:33:10;;;;;;;1999.90;999.90;;;30.30;93.60;;;;;;5113406;28;21151;-71
2023/09/05 10:35:44;;;;;;;1999.90;999.90;;;30.10;93.40;;;;;;5117287;28;20579;-72
2023/09/05 10:38:12;;;;;;;1999.90;999.90;;;29.90;93.40;;;;;;5112260;28;20949;-71
2023/09/05 10:40:40;;;;;;;1999.90;999.90;;;30.10;93.80;;;;;;5120444;28;20432;-69
2023/09/05 10:43:08;;;;;;;1999.90;999.90;;;30.20;93.90;;;;;;5113889;28;20424;-71
2023/09/05 10:45:36;;;;;;;1999.90;999.90;;;29.90;93.90;;;;;;5108513;28;20998;-71
2023/09/05 10:48:11;;;;;;;1999.90;999.90;;;29.80;93.90;;;;;;5115748;28;20903;-69
2023/09/05 10:51:10;;;;;;;1999.90;999.90;;;29.90;93.70;;;;;;5118630;28;20424;-70
2023/09/05 10:53:37;;;;;;;1999.90;999.90;;;30.30;93.20;;;;;;5111172;28;20428;-71
2023/09/05 10:56:05;;;;;;;1999.90;999.90;;;30.40;93.00;;;;;;5110031;28;20432;-70
2023/09/05 10:58:47;;;;;;;1999.90;999.90;;;30.20;94.00;;;;;;5112251;28;20440;-72
2023/09/05 11:01:44;;;;;;;1999.90;999.90;;;30.50;93.00;;;;;;5113776;28;20418;-70
2023/09/05 11:04:24;;;;;;;1999.90;999.90;;;30.60;90.20;;;;;;5117463;28;20423;-72
2023/09/05 11:07:00;;;;;;;1999.90;999.90;;;30.60;91.80;;;;;;5106323;28;20440;-70
2023/09/05 11:09:27;;;;;;;1999.90;999.90;;;30.50;91.50;;;;;;5115005;28;20420;-70
2023/09/05 11:11:55;;;;;;;1999.90;999.90;;;30.80;89.70;;;;;;5115065;28;20420;-71
2023/09/05 11:14:35;;;;;;;1999.90;999.90;;;30.70;88.00;;;;;;5117650;28;20448;-70
2023/09/05 11:17:03;;;;;;;1999.90;999.90;;;30.70;86.60;;;;;;5117616;28;20426;-69
2023/09/05 11:19:32;;;;;;;1999.90;999.90;;;30.60;86.60;;;;;;5110517;28;20422;-70
2023/09/05 11:22:18;;;;;;;1999.90;999.90;;;30.80;87.30;;;;;;5113511;28;20443;-70
2023/09/05 11:24:47;;;;;;;1999.90;999.90;;;30.80;85.40;;;;;;5115790;28;20415;-70
2023/09/05 11:27:16;;;;;;;1999.90;999.90;;;30.70;85.20;;;;;;5121542;28;20420;-69
2023/09/05 11:29:45;;;;;;;1999.90;999.90;;;30.80;85.20;;;;;;5109451;28;21045;-70
2023/09/05 11:32:14;;;;;;;1999.90;999.90;;;31.00;85.30;;;;;;5108470;28;20847;-70
2023/09/05 11:34:43;;;;;;;1999.90;999.90;;;31.10;84.10;;;;;;5140193;22;20495;-73
2023/09/05 11:37:10;;;;;;;1999.90;999.90;;;31.00;85.10;;;;;;5093101;28;20426;-74
2023/09/05 11:39:38;;;;;;;1999.90;999.90;;;30.80;82.80;;;;;;5093660;28;20410;-73
2023/09/05 11:42:05;;;;;;;1999.90;999.90;;;31.00;84.00;;;;;;5091829;28;20429;-73
2023/09/05 11:44:38;;;;;;;1999.90;999.90;;;30.80;85.50;;;;;;5090967;28;20409;-73
2023/09/05 11:47:05;;;;;;;1999.90;999.90;;;30.90;84.20;;;;;;5071824;28;20462;-76
2023/09/05 11:49:34;;;;;;;1999.90;999.90;;;31.10;86.10;;;;;;5073318;28;20439;-73
2023/09/05 11:52:01;;;;;;;1999.90;999.90;;;31.30;85.10;;;;;;5071311;28;20431;-74
2023/09/05 11:54:29;;;;;;;1999.90;999.90;;;31.20;84.30;;;;;;5068103;28;20984;-74
2023/09/05 11:56:58;;;;;;;1999.90;999.90;;;31.00;83.40;;;;;;5078956;28;20428;-74
2023/09/05 11:59:25;;;;;;;1999.90;999.90;;;31.00;84.70;;;;;;5070604;28;20431;-74
2023/09/05 12:01:52;;;;;;;1999.90;999.90;;;31.10;84.60;;;;;;5069034;28;20454;-73
2023/09/05 12:04:19;;;;;;;1999.90;999.90;;;31.10;85.80;;;;;;5069041;28;20916;-74
2023/09/05 12:06:49;;;;;;;1999.90;999.90;;;31.30;83.10;;;;;;5077826;28;20425;-74